sensor_id;sensor_type;location;lat;lon;timestamp;P1;durP1;ratioP1;P2;durP2;ratioP2
7887;SDS011;3989;48.810;9.208;2022-11-04T00:01:18;1.60;;;1.03;;
7887;SDS011;3989;48.810;9.208;2022-11-04T00:03:45;0.60;;;0.60;;
7887;SDS011;3989;48.810;9.208;2022-11-04T00:06:13;1.00;;;1.00;;
7887;SDS011;3989;48.810;9.208;2022-11-04T00:08:40;1.17;;;1.17;;
7887;SDS011;3989;48.810;9.208;2022-11-04T00:11:06;0.97;;;0.90;;
7887;SDS011;3989;48.810;9.208;2022-11-04T00:13:52;1.23;;;1.00;;
7887;SDS011;3989;48.810;9.208;2022-11-04T00:16:19;0.83;;;0.83;;
7887;SDS011;3989;48.810;9.208;2022-11-04T00:19:03;0.90;;;0.90;;
7887;SDS011;3989;48.810;9.208;2022-11-04T00:21:31;1.30;;;1.17;;
7887;SDS011;3989;48.810;9.208;2022-11-04T00:24:15;0.83;;;0.83;;
7887;SDS011;3989;48.810;9.208;2022-11-04T00:26:59;1.30;;;1.20;;
7887;SDS011;3989;48.810;9.208;2022-11-04T00:29:43;1.70;;;1.37;;
7887;SDS011;3989;48.810;9.208;2022-11-04T00:32:09;1.63;;;0.97;;
7887;SDS011;3989;48.810;9.208;2022-11-04T00:34:54;0.83;;;0.80;;
7887;SDS011;3989;48.810;9.208;2022-11-04T00:37:22;1.13;;;1.03;;
7887;SDS011;3989;48.810;9.208;2022-11-04T00:39:48;0.90;;;0.90;;
7887;SDS011;3989;48.810;9.208;2022-11-04T00:42:15;1.10;;;1.00;;
7887;SDS011;3989;48.810;9.208;2022-11-04T00:44:41;0.93;;;0.93;;
7887;SDS011;3989;48.810;9.208;2022-11-04T00:47:08;1.07;;;1.07;;
7887;SDS011;3989;48.810;9.208;2022-11-04T00:49:35;0.60;;;0.60;;
7887;SDS011;3989;48.810;9.208;2022-11-04T00:52:01;0.97;;;0.97;;
7887;SDS011;3989;48.810;9.208;2022-11-04T00:54:30;1.23;;;1.00;;
7887;SDS011;3989;48.810;9.208;2022-11-04T00:56:56;0.97;;;0.90;;
7887;SDS011;3989;48.810;9.208;2022-11-04T00:59:23;0.90;;;0.90;;
7887;SDS011;3989;48.810;9.208;2022-11-04T01:01:49;1.30;;;1.17;;
7887;SDS011;3989;48.810;9.208;2022-11-04T01:04:15;0.90;;;0.90;;
7887;SDS011;3989;48.810;9.208;2022-11-04T01:06:42;0.83;;;0.83;;
7887;SDS011;3989;48.810;9.208;2022-11-04T01:09:09;0.80;;;0.80;;
7887;SDS011;3989;48.810;9.208;2022-11-04T01:11:39;2.23;;;1.03;;
7887;SDS011;3989;48.810;9.208;2022-11-04T01:14:05;0.93;;;0.93;;
7887;SDS011;3989;48.810;9.208;2022-11-04T01:16:32;0.80;;;0.80;;
7887;SDS011;3989;48.810;9.208;2022-11-04T01:18:59;0.90;;;0.90;;
7887;SDS011;3989;48.810;9.208;2022-11-04T01:21:26;1.67;;;0.70;;
7887;SDS011;3989;48.810;9.208;2022-11-04T01:23:53;0.90;;;0.90;;
7887;SDS011;3989;48.810;9.208;2022-11-04T01:26:20;1.03;;;1.03;;
7887;SDS011;3989;48.810;9.208;2022-11-04T01:28:49;0.63;;;0.63;;
7887;SDS011;3989;48.810;9.208;2022-11-04T01:31:17;0.77;;;0.77;;
7887;SDS011;3989;48.810;9.208;2022-11-04T01:33:45;0.60;;;0.60;;
7887;SDS011;3989;48.810;9.208;2022-11-04T01:36:12;0.80;;;0.70;;
7887;SDS011;3989;48.810;9.208;2022-11-04T01:38:39;0.93;;;0.80;;
7887;SDS011;3989;48.810;9.208;2022-11-04T01:41:06;0.67;;;0.67;;
7887;SDS011;3989;48.810;9.208;2022-11-04T01:43:43;0.60;;;0.60;;
7887;SDS011;3989;48.810;9.208;2022-11-04T01:46:14;0.60;;;0.60;;
7887;SDS011;3989;48.810;9.208;2022-11-04T01:48:50;0.80;;;0.80;;
7887;SDS011;3989;48.810;9.208;2022-11-04T01:51:18;0.50;;;0.50;;
7887;SDS011;3989;48.810;9.208;2022-11-04T01:53:46;0.60;;;0.60;;
7887;SDS011;3989;48.810;9.208;2022-11-04T01:56:17;0.60;;;0.60;;
7887;SDS011;3989;48.810;9.208;2022-11-04T01:58:45;0.60;;;0.60;;
7887;SDS011;3989;48.810;9.208;2022-11-04T02:01:17;0.83;;;0.83;;
7887;SDS011;3989;48.810;9.208;2022-11-04T02:03:46;0.70;;;0.70;;
7887;SDS011;3989;48.810;9.208;2022-11-04T02:06:16;1.70;;;0.90;;
7887;SDS011;3989;48.810;9.208;2022-11-04T02:08:44;0.80;;;0.80;;
7887;SDS011;3989;48.810;9.208;2022-11-04T02:11:11;0.93;;;0.93;;
7887;SDS011;3989;48.810;9.208;2022-11-04T02:13:58;1.00;;;0.73;;
7887;SDS011;3989;48.810;9.208;2022-11-04T02:16:27;1.00;;;1.00;;
7887;SDS011;3989;48.810;9.208;2022-11-04T02:19:05;0.90;;;0.90;;
7887;SDS011;3989;48.810;9.208;2022-11-04T02:21:56;0.63;;;0.63;;
7887;SDS011;3989;48.810;9.208;2022-11-04T02:24:56;1.50;;;1.10;;
7887;SDS011;3989;48.810;9.208;2022-11-04T02:27:35;0.80;;;0.80;;
7887;SDS011;3989;48.810;9.208;2022-11-04T02:30:15;0.63;;;0.63;;
7887;SDS011;3989;48.810;9.208;2022-11-04T02:32:53;0.90;;;0.90;;
7887;SDS011;3989;48.810;9.208;2022-11-04T02:35:31;0.87;;;0.77;;
7887;SDS011;3989;48.810;9.208;2022-11-04T02:38:08;0.80;;;0.80;;
7887;SDS011;3989;48.810;9.208;2022-11-04T02:40:39;1.00;;;0.70;;
7887;SDS011;3989;48.810;9.208;2022-11-04T02:43:11;0.80;;;0.60;;
7887;SDS011;3989;48.810;9.208;2022-11-04T02:45:47;1.00;;;1.00;;
7887;SDS011;3989;48.810;9.208;2022-11-04T02:48:18;0.40;;;0.40;;
7887;SDS011;3989;48.810;9.208;2022-11-04T02:50:53;0.67;;;0.60;;
7887;SDS011;3989;48.810;9.208;2022-11-04T02:53:28;0.50;;;0.50;;
7887;SDS011;3989;48.810;9.208;2022-11-04T02:55:58;0.60;;;0.60;;
7887;SDS011;3989;48.810;9.208;2022-11-04T02:58:29;0.60;;;0.60;;
7887;SDS011;3989;48.810;9.208;2022-11-04T03:01:00;1.23;;;0.73;;
7887;SDS011;3989;48.810;9.208;2022-11-04T03:03:30;0.93;;;0.67;;
7887;SDS011;3989;48.810;9.208;2022-11-04T03:06:00;1.20;;;0.67;;
7887;SDS011;3989;48.810;9.208;2022-11-04T03:08:30;0.60;;;0.60;;
7887;SDS011;3989;48.810;9.208;2022-11-04T03:11:01;0.50;;;0.50;;
7887;SDS011;3989;48.810;9.208;2022-11-04T03:13:32;1.63;;;0.80;;
7887;SDS011;3989;48.810;9.208;2022-11-04T03:16:07;0.60;;;0.60;;
7887;SDS011;3989;48.810;9.208;2022-11-04T03:18:37;0.70;;;0.70;;
7887;SDS011;3989;48.810;9.208;2022-11-04T03:21:12;1.10;;;1.00;;
7887;SDS011;3989;48.810;9.208;2022-11-04T03:23:41;2.73;;;0.70;;
7887;SDS011;3989;48.810;9.208;2022-11-04T03:26:10;0.50;;;0.50;;
7887;SDS011;3989;48.810;9.208;2022-11-04T03:28:44;1.90;;;0.60;;
7887;SDS011;3989;48.810;9.208;2022-11-04T03:31:19;0.50;;;0.50;;
7887;SDS011;3989;48.810;9.208;2022-11-04T03:33:50;0.50;;;0.40;;
7887;SDS011;3989;48.810;9.208;2022-11-04T03:36:18;1.30;;;0.60;;
7887;SDS011;3989;48.810;9.208;2022-11-04T03:38:48;0.60;;;0.60;;
7887;SDS011;3989;48.810;9.208;2022-11-04T03:41:17;2.27;;;0.73;;
7887;SDS011;3989;48.810;9.208;2022-11-04T03:43:48;0.60;;;0.60;;
7887;SDS011;3989;48.810;9.208;2022-11-04T03:46:14;0.70;;;0.70;;
7887;SDS011;3989;48.810;9.208;2022-11-04T03:48:43;0.50;;;0.50;;
7887;SDS011;3989;48.810;9.208;2022-11-04T03:51:11;0.60;;;0.60;;
7887;SDS011;3989;48.810;9.208;2022-11-04T03:53:37;0.60;;;0.60;;
7887;SDS011;3989;48.810;9.208;2022-11-04T03:56:10;0.60;;;0.60;;
7887;SDS011;3989;48.810;9.208;2022-11-04T03:58:55;1.07;;;0.60;;
7887;SDS011;3989;48.810;9.208;2022-11-04T04:01:32;1.80;;;1.27;;
7887;SDS011;3989;48.810;9.208;2022-11-04T04:04:11;2.53;;;0.80;;
7887;SDS011;3989;48.810;9.208;2022-11-04T04:06:44;0.80;;;0.80;;
7887;SDS011;3989;48.810;9.208;2022-11-04T04:09:14;0.50;;;0.50;;
7887;SDS011;3989;48.810;9.208;2022-11-04T04:11:46;0.97;;;0.97;;
7887;SDS011;3989;48.810;9.208;2022-11-04T04:14:21;0.90;;;0.40;;
7887;SDS011;3989;48.810;9.208;2022-11-04T04:17:04;1.67;;;0.97;;
7887;SDS011;3989;48.810;9.208;2022-11-04T04:19:35;0.63;;;0.63;;
7887;SDS011;3989;48.810;9.208;2022-11-04T04:22:04;1.23;;;0.90;;
7887;SDS011;3989;48.810;9.208;2022-11-04T04:24:35;0.90;;;0.90;;
7887;SDS011;3989;48.810;9.208;2022-11-04T04:27:24;0.87;;;0.87;;
7887;SDS011;3989;48.810;9.208;2022-11-04T04:29:56;0.87;;;0.87;;
7887;SDS011;3989;48.810;9.208;2022-11-04T04:32:24;0.80;;;0.80;;
7887;SDS011;3989;48.810;9.208;2022-11-04T04:34:54;0.80;;;0.80;;
7887;SDS011;3989;48.810;9.208;2022-11-04T04:37:41;2.43;;;1.17;;
7887;SDS011;3989;48.810;9.208;2022-11-04T04:40:11;1.53;;;1.10;;
7887;SDS011;3989;48.810;9.208;2022-11-04T04:42:57;1.00;;;1.00;;
7887;SDS011;3989;48.810;9.208;2022-11-04T04:45:41;2.27;;;1.20;;
7887;SDS011;3989;48.810;9.208;2022-11-04T04:48:13;1.00;;;1.00;;
7887;SDS011;3989;48.810;9.208;2022-11-04T04:50:42;2.97;;;1.00;;
7887;SDS011;3989;48.810;9.208;2022-11-04T04:53:13;0.80;;;0.80;;
7887;SDS011;3989;48.810;9.208;2022-11-04T04:55:40;1.87;;;0.90;;
7887;SDS011;3989;48.810;9.208;2022-11-04T04:58:07;0.60;;;0.60;;
7887;SDS011;3989;48.810;9.208;2022-11-04T05:00:34;0.70;;;0.70;;
7887;SDS011;3989;48.810;9.208;2022-11-04T05:03:00;0.63;;;0.63;;
7887;SDS011;3989;48.810;9.208;2022-11-04T05:05:27;1.13;;;1.03;;
7887;SDS011;3989;48.810;9.208;2022-11-04T05:07:55;1.40;;;1.20;;
7887;SDS011;3989;48.810;9.208;2022-11-04T05:10:29;0.90;;;0.90;;
7887;SDS011;3989;48.810;9.208;2022-11-04T05:12:58;1.10;;;1.00;;
7887;SDS011;3989;48.810;9.208;2022-11-04T05:15:42;1.10;;;0.93;;
7887;SDS011;3989;48.810;9.208;2022-11-04T05:18:08;0.90;;;0.70;;
7887;SDS011;3989;48.810;9.208;2022-11-04T05:20:38;1.13;;;1.03;;
7887;SDS011;3989;48.810;9.208;2022-11-04T05:23:07;1.77;;;1.30;;
7887;SDS011;3989;48.810;9.208;2022-11-04T05:25:36;1.20;;;1.20;;
7887;SDS011;3989;48.810;9.208;2022-11-04T05:28:03;0.77;;;0.77;;
7887;SDS011;3989;48.810;9.208;2022-11-04T05:30:33;1.00;;;0.90;;
7887;SDS011;3989;48.810;9.208;2022-11-04T05:33:00;0.80;;;0.80;;
7887;SDS011;3989;48.810;9.208;2022-11-04T05:35:26;0.73;;;0.73;;
7887;SDS011;3989;48.810;9.208;2022-11-04T05:37:56;1.40;;;0.73;;
7887;SDS011;3989;48.810;9.208;2022-11-04T05:40:24;1.80;;;0.90;;
7887;SDS011;3989;48.810;9.208;2022-11-04T05:42:50;2.40;;;1.03;;
7887;SDS011;3989;48.810;9.208;2022-11-04T05:45:17;1.60;;;0.93;;
7887;SDS011;3989;48.810;9.208;2022-11-04T05:47:44;0.90;;;0.90;;
7887;SDS011;3989;48.810;9.208;2022-11-04T05:50:11;1.43;;;1.20;;
7887;SDS011;3989;48.810;9.208;2022-11-04T05:52:37;1.23;;;1.13;;
7887;SDS011;3989;48.810;9.208;2022-11-04T05:55:04;2.17;;;1.00;;
7887;SDS011;3989;48.810;9.208;2022-11-04T05:57:33;1.37;;;1.27;;
7887;SDS011;3989;48.810;9.208;2022-11-04T06:00:02;1.40;;;1.30;;
7887;SDS011;3989;48.810;9.208;2022-11-04T06:02:29;2.83;;;1.17;;
7887;SDS011;3989;48.810;9.208;2022-11-04T06:04:56;1.50;;;1.40;;
7887;SDS011;3989;48.810;9.208;2022-11-04T06:07:23;1.77;;;1.67;;
7887;SDS011;3989;48.810;9.208;2022-11-04T06:09:49;2.23;;;1.57;;
7887;SDS011;3989;48.810;9.208;2022-11-04T06:12:16;3.83;;;1.50;;
7887;SDS011;3989;48.810;9.208;2022-11-04T06:14:44;1.77;;;1.53;;
7887;SDS011;3989;48.810;9.208;2022-11-04T06:17:12;1.73;;;1.40;;
7887;SDS011;3989;48.810;9.208;2022-11-04T06:19:39;2.43;;;1.60;;
7887;SDS011;3989;48.810;9.208;2022-11-04T06:22:07;1.60;;;1.50;;
7887;SDS011;3989;48.810;9.208;2022-11-04T06:24:34;1.73;;;1.63;;
7887;SDS011;3989;48.810;9.208;2022-11-04T06:27:01;2.47;;;1.27;;
7887;SDS011;3989;48.810;9.208;2022-11-04T06:29:27;3.40;;;1.60;;
7887;SDS011;3989;48.810;9.208;2022-11-04T06:31:57;1.83;;;1.67;;
7887;SDS011;3989;48.810;9.208;2022-11-04T06:34:24;2.23;;;1.20;;
7887;SDS011;3989;48.810;9.208;2022-11-04T06:36:50;1.70;;;1.40;;
7887;SDS011;3989;48.810;9.208;2022-11-04T06:39:17;1.87;;;1.77;;
7887;SDS011;3989;48.810;9.208;2022-11-04T06:41:44;2.30;;;1.87;;
7887;SDS011;3989;48.810;9.208;2022-11-04T06:44:10;3.10;;;1.77;;
7887;SDS011;3989;48.810;9.208;2022-11-04T06:46:38;5.00;;;2.23;;
7887;SDS011;3989;48.810;9.208;2022-11-04T06:49:10;3.03;;;2.10;;
7887;SDS011;3989;48.810;9.208;2022-11-04T06:51:38;3.70;;;2.27;;
7887;SDS011;3989;48.810;9.208;2022-11-04T06:54:05;3.03;;;1.90;;
7887;SDS011;3989;48.810;9.208;2022-11-04T06:56:31;3.27;;;2.17;;
7887;SDS011;3989;48.810;9.208;2022-11-04T06:58:58;4.90;;;2.23;;
7887;SDS011;3989;48.810;9.208;2022-11-04T07:01:26;2.20;;;2.03;;
7887;SDS011;3989;48.810;9.208;2022-11-04T07:03:55;3.20;;;2.23;;
7887;SDS011;3989;48.810;9.208;2022-11-04T07:06:24;2.97;;;2.00;;
7887;SDS011;3989;48.810;9.208;2022-11-04T07:08:54;3.03;;;1.90;;
7887;SDS011;3989;48.810;9.208;2022-11-04T07:11:23;3.37;;;1.77;;
7887;SDS011;3989;48.810;9.208;2022-11-04T07:13:50;2.70;;;1.60;;
7887;SDS011;3989;48.810;9.208;2022-11-04T07:16:17;3.23;;;1.73;;
7887;SDS011;3989;48.810;9.208;2022-11-04T07:18:44;1.87;;;1.77;;
7887;SDS011;3989;48.810;9.208;2022-11-04T07:21:12;4.97;;;2.67;;
7887;SDS011;3989;48.810;9.208;2022-11-04T07:23:40;1.57;;;1.43;;
7887;SDS011;3989;48.810;9.208;2022-11-04T07:26:07;3.77;;;1.93;;
7887;SDS011;3989;48.810;9.208;2022-11-04T07:28:37;4.27;;;2.23;;
7887;SDS011;3989;48.810;9.208;2022-11-04T07:31:05;5.73;;;2.40;;
7887;SDS011;3989;48.810;9.208;2022-11-04T07:33:32;2.73;;;2.20;;
7887;SDS011;3989;48.810;9.208;2022-11-04T07:36:01;4.37;;;2.53;;
7887;SDS011;3989;48.810;9.208;2022-11-04T07:38:29;2.67;;;1.90;;
7887;SDS011;3989;48.810;9.208;2022-11-04T07:40:57;2.33;;;2.10;;
7887;SDS011;3989;48.810;9.208;2022-11-04T07:43:26;6.67;;;2.63;;
7887;SDS011;3989;48.810;9.208;2022-11-04T07:46:05;2.70;;;2.40;;
7887;SDS011;3989;48.810;9.208;2022-11-04T07:48:33;5.43;;;3.40;;
7887;SDS011;3989;48.810;9.208;2022-11-04T07:51:00;4.50;;;2.80;;
7887;SDS011;3989;48.810;9.208;2022-11-04T07:53:29;4.63;;;2.83;;
7887;SDS011;3989;48.810;9.208;2022-11-04T07:56:01;4.07;;;3.43;;
7887;SDS011;3989;48.810;9.208;2022-11-04T07:58:29;5.50;;;3.30;;
7887;SDS011;3989;48.810;9.208;2022-11-04T08:00:58;4.27;;;3.63;;
7887;SDS011;3989;48.810;9.208;2022-11-04T08:03:26;3.33;;;3.07;;
7887;SDS011;3989;48.810;9.208;2022-11-04T08:05:55;5.77;;;3.63;;
7887;SDS011;3989;48.810;9.208;2022-11-04T08:08:22;3.90;;;3.13;;
7887;SDS011;3989;48.810;9.208;2022-11-04T08:10:52;4.10;;;3.20;;
7887;SDS011;3989;48.810;9.208;2022-11-04T08:13:20;4.77;;;3.90;;
7887;SDS011;3989;48.810;9.208;2022-11-04T08:15:47;6.27;;;3.07;;
7887;SDS011;3989;48.810;9.208;2022-11-04T08:18:13;6.00;;;3.40;;
7887;SDS011;3989;48.810;9.208;2022-11-04T08:20:45;6.60;;;3.03;;
7887;SDS011;3989;48.810;9.208;2022-11-04T08:23:16;4.60;;;3.10;;
7887;SDS011;3989;48.810;9.208;2022-11-04T08:25:43;4.73;;;2.60;;
7887;SDS011;3989;48.810;9.208;2022-11-04T08:28:10;7.43;;;3.13;;
7887;SDS011;3989;48.810;9.208;2022-11-04T08:30:50;3.13;;;2.40;;
7887;SDS011;3989;48.810;9.208;2022-11-04T08:33:17;3.87;;;2.70;;
7887;SDS011;3989;48.810;9.208;2022-11-04T08:35:44;3.43;;;2.37;;
7887;SDS011;3989;48.810;9.208;2022-11-04T08:38:10;2.33;;;2.13;;
7887;SDS011;3989;48.810;9.208;2022-11-04T08:40:37;2.90;;;2.63;;
7887;SDS011;3989;48.810;9.208;2022-11-04T08:43:04;3.47;;;2.40;;
7887;SDS011;3989;48.810;9.208;2022-11-04T08:45:30;2.13;;;1.97;;
7887;SDS011;3989;48.810;9.208;2022-11-04T08:48:02;2.37;;;2.17;;
7887;SDS011;3989;48.810;9.208;2022-11-04T08:50:30;3.33;;;2.20;;
7887;SDS011;3989;48.810;9.208;2022-11-04T08:52:57;2.40;;;2.23;;
7887;SDS011;3989;48.810;9.208;2022-11-04T08:55:24;3.53;;;2.20;;
7887;SDS011;3989;48.810;9.208;2022-11-04T08:57:54;5.53;;;2.10;;
7887;SDS011;3989;48.810;9.208;2022-11-04T09:00:23;6.23;;;2.37;;
7887;SDS011;3989;48.810;9.208;2022-11-04T09:02:50;3.33;;;2.53;;
7887;SDS011;3989;48.810;9.208;2022-11-04T09:05:20;2.00;;;1.50;;
7887;SDS011;3989;48.810;9.208;2022-11-04T09:07:47;2.43;;;1.93;;
7887;SDS011;3989;48.810;9.208;2022-11-04T09:10:14;1.80;;;1.70;;
7887;SDS011;3989;48.810;9.208;2022-11-04T09:12:41;3.10;;;1.77;;
7887;SDS011;3989;48.810;9.208;2022-11-04T09:15:08;1.83;;;1.63;;
7887;SDS011;3989;48.810;9.208;2022-11-04T09:17:35;3.60;;;1.50;;
7887;SDS011;3989;48.810;9.208;2022-11-04T09:20:02;4.03;;;1.87;;
7887;SDS011;3989;48.810;9.208;2022-11-04T09:22:31;2.90;;;1.90;;
7887;SDS011;3989;48.810;9.208;2022-11-04T09:24:57;1.53;;;1.43;;
7887;SDS011;3989;48.810;9.208;2022-11-04T09:27:24;3.00;;;1.77;;
7887;SDS011;3989;48.810;9.208;2022-11-04T09:29:51;3.30;;;1.57;;
7887;SDS011;3989;48.810;9.208;2022-11-04T09:32:17;1.67;;;1.57;;
7887;SDS011;3989;48.810;9.208;2022-11-04T09:34:44;2.90;;;1.87;;
7887;SDS011;3989;48.810;9.208;2022-11-04T09:37:11;1.67;;;1.57;;
7887;SDS011;3989;48.810;9.208;2022-11-04T09:39:39;4.27;;;1.80;;
7887;SDS011;3989;48.810;9.208;2022-11-04T09:42:12;3.20;;;1.50;;
7887;SDS011;3989;48.810;9.208;2022-11-04T09:44:57;2.67;;;1.60;;
7887;SDS011;3989;48.810;9.208;2022-11-04T09:47:28;3.47;;;1.60;;
7887;SDS011;3989;48.810;9.208;2022-11-04T09:49:58;1.70;;;1.53;;
7887;SDS011;3989;48.810;9.208;2022-11-04T09:52:27;1.73;;;1.60;;
7887;SDS011;3989;48.810;9.208;2022-11-04T09:54:59;2.60;;;2.30;;
7887;SDS011;3989;48.810;9.208;2022-11-04T09:57:31;3.43;;;1.93;;
7887;SDS011;3989;48.810;9.208;2022-11-04T09:59:58;4.43;;;2.10;;
7887;SDS011;3989;48.810;9.208;2022-11-04T10:02:33;1.90;;;1.80;;
7887;SDS011;3989;48.810;9.208;2022-11-04T10:05:14;1.87;;;1.77;;
7887;SDS011;3989;48.810;9.208;2022-11-04T10:08:01;5.00;;;2.10;;
7887;SDS011;3989;48.810;9.208;2022-11-04T10:10:45;1.20;;;1.20;;
7887;SDS011;3989;48.810;9.208;2022-11-04T10:13:22;2.40;;;1.30;;
7887;SDS011;3989;48.810;9.208;2022-11-04T10:16:00;2.20;;;1.40;;
7887;SDS011;3989;48.810;9.208;2022-11-04T10:18:46;2.13;;;1.30;;
7887;SDS011;3989;48.810;9.208;2022-11-04T10:21:27;1.27;;;1.17;;
7887;SDS011;3989;48.810;9.208;2022-11-04T10:24:05;3.73;;;1.47;;
7887;SDS011;3989;48.810;9.208;2022-11-04T10:26:41;1.10;;;1.10;;
7887;SDS011;3989;48.810;9.208;2022-11-04T10:29:11;1.33;;;1.23;;
7887;SDS011;3989;48.810;9.208;2022-11-04T10:31:41;1.97;;;1.50;;
7887;SDS011;3989;48.810;9.208;2022-11-04T10:34:13;0.90;;;0.90;;
7887;SDS011;3989;48.810;9.208;2022-11-04T10:36:49;2.77;;;1.67;;
7887;SDS011;3989;48.810;9.208;2022-11-04T10:39:24;1.60;;;1.10;;
7887;SDS011;3989;48.810;9.208;2022-11-04T10:42:28;1.53;;;1.43;;
7887;SDS011;3989;48.810;9.208;2022-11-04T10:44:58;2.57;;;1.00;;
7887;SDS011;3989;48.810;9.208;2022-11-04T10:47:27;2.23;;;1.23;;
7887;SDS011;3989;48.810;9.208;2022-11-04T10:50:13;1.17;;;0.90;;
7887;SDS011;3989;48.810;9.208;2022-11-04T10:52:47;1.37;;;1.13;;
7887;SDS011;3989;48.810;9.208;2022-11-04T10:55:15;2.07;;;1.30;;
7887;SDS011;3989;48.810;9.208;2022-11-04T10:57:55;2.43;;;0.93;;
7887;SDS011;3989;48.810;9.208;2022-11-04T11:00:35;0.70;;;0.70;;
7887;SDS011;3989;48.810;9.208;2022-11-04T11:03:20;1.73;;;1.00;;
7887;SDS011;3989;48.810;9.208;2022-11-04T11:06:09;2.37;;;1.17;;
7887;SDS011;3989;48.810;9.208;2022-11-04T11:08:38;2.83;;;0.70;;
7887;SDS011;3989;48.810;9.208;2022-11-04T11:11:06;1.57;;;0.87;;
7887;SDS011;3989;48.810;9.208;2022-11-04T11:13:36;2.60;;;1.00;;
7887;SDS011;3989;48.810;9.208;2022-11-04T11:16:06;3.07;;;1.10;;
7887;SDS011;3989;48.810;9.208;2022-11-04T11:18:35;0.87;;;0.77;;
7887;SDS011;3989;48.810;9.208;2022-11-04T11:21:04;2.33;;;0.93;;
7887;SDS011;3989;48.810;9.208;2022-11-04T11:23:35;1.73;;;1.27;;
7887;SDS011;3989;48.810;9.208;2022-11-04T11:26:05;4.60;;;0.80;;
7887;SDS011;3989;48.810;9.208;2022-11-04T11:28:33;1.17;;;0.90;;
7887;SDS011;3989;48.810;9.208;2022-11-04T11:31:05;0.97;;;0.60;;
7887;SDS011;3989;48.810;9.208;2022-11-04T11:33:38;1.03;;;0.73;;
7887;SDS011;3989;48.810;9.208;2022-11-04T11:36:13;0.77;;;0.77;;
7887;SDS011;3989;48.810;9.208;2022-11-04T11:38:54;2.00;;;0.90;;
7887;SDS011;3989;48.810;9.208;2022-11-04T11:41:23;1.77;;;1.00;;
7887;SDS011;3989;48.810;9.208;2022-11-04T11:43:57;1.90;;;0.77;;
7887;SDS011;3989;48.810;9.208;2022-11-04T11:46:34;1.67;;;0.80;;
7887;SDS011;3989;48.810;9.208;2022-11-04T11:49:10;4.10;;;1.30;;
7887;SDS011;3989;48.810;9.208;2022-11-04T11:51:49;1.97;;;0.93;;
7887;SDS011;3989;48.810;9.208;2022-11-04T11:54:18;0.87;;;0.60;;
7887;SDS011;3989;48.810;9.208;2022-11-04T11:56:52;2.37;;;0.80;;
7887;SDS011;3989;48.810;9.208;2022-11-04T11:59:41;1.67;;;0.90;;
7887;SDS011;3989;48.810;9.208;2022-11-04T12:02:20;0.87;;;0.70;;
7887;SDS011;3989;48.810;9.208;2022-11-04T12:04:53;1.27;;;1.17;;
7887;SDS011;3989;48.810;9.208;2022-11-04T12:07:22;3.23;;;1.10;;
7887;SDS011;3989;48.810;9.208;2022-11-04T12:09:59;1.73;;;0.80;;
7887;SDS011;3989;48.810;9.208;2022-11-04T12:12:36;2.00;;;0.80;;
7887;SDS011;3989;48.810;9.208;2022-11-04T12:18:26;1.53;;;1.00;;
7887;SDS011;3989;48.810;9.208;2022-11-04T12:21:13;0.80;;;0.80;;
7887;SDS011;3989;48.810;9.208;2022-11-04T12:23:45;1.37;;;0.57;;
7887;SDS011;3989;48.810;9.208;2022-11-04T12:26:19;1.30;;;0.87;;
7887;SDS011;3989;48.810;9.208;2022-11-04T12:31:57;1.90;;;0.87;;
7887;SDS011;3989;48.810;9.208;2022-11-04T12:34:40;2.53;;;1.23;;
7887;SDS011;3989;48.810;9.208;2022-11-04T12:37:51;3.03;;;1.00;;
7887;SDS011;3989;48.810;9.208;2022-11-04T12:41:08;2.53;;;1.00;;
7887;SDS011;3989;48.810;9.208;2022-11-04T12:44:21;2.23;;;1.00;;
7887;SDS011;3989;48.810;9.208;2022-11-04T12:50:26;1.00;;;0.80;;
7887;SDS011;3989;48.810;9.208;2022-11-04T12:53:35;2.00;;;0.93;;
7887;SDS011;3989;48.810;9.208;2022-11-04T12:56:25;2.27;;;1.00;;
7887;SDS011;3989;48.810;9.208;2022-11-04T13:02:09;3.63;;;0.90;;
7887;SDS011;3989;48.810;9.208;2022-11-04T13:05:16;2.80;;;0.80;;
7887;SDS011;3989;48.810;9.208;2022-11-04T13:11:35;3.60;;;1.10;;
7887;SDS011;3989;48.810;9.208;2022-11-04T13:21:35;1.33;;;0.70;;
7887;SDS011;3989;48.810;9.208;2022-11-04T13:24:25;2.87;;;0.93;;
7887;SDS011;3989;48.810;9.208;2022-11-04T13:27:18;3.50;;;0.87;;
7887;SDS011;3989;48.810;9.208;2022-11-04T13:30:20;2.30;;;0.80;;
7887;SDS011;3989;48.810;9.208;2022-11-04T13:33:03;3.27;;;1.00;;
7887;SDS011;3989;48.810;9.208;2022-11-04T13:35:46;2.63;;;0.80;;
7887;SDS011;3989;48.810;9.208;2022-11-04T13:38:41;2.30;;;1.17;;
7887;SDS011;3989;48.810;9.208;2022-11-04T13:41:25;1.63;;;1.10;;
7887;SDS011;3989;48.810;9.208;2022-11-04T13:44:04;3.20;;;1.00;;
7887;SDS011;3989;48.810;9.208;2022-11-04T13:46:39;3.30;;;0.90;;
7887;SDS011;3989;48.810;9.208;2022-11-04T13:49:15;1.17;;;0.97;;
7887;SDS011;3989;48.810;9.208;2022-11-04T13:51:46;1.67;;;0.90;;
7887;SDS011;3989;48.810;9.208;2022-11-04T13:54:28;3.83;;;1.40;;
7887;SDS011;3989;48.810;9.208;2022-11-04T13:57:03;3.13;;;0.93;;
7887;SDS011;3989;48.810;9.208;2022-11-04T13:59:32;3.60;;;1.27;;
7887;SDS011;3989;48.810;9.208;2022-11-04T14:08:07;2.87;;;1.07;;
7887;SDS011;3989;48.810;9.208;2022-11-04T14:10:38;2.27;;;1.17;;
7887;SDS011;3989;48.810;9.208;2022-11-04T14:16:36;4.47;;;0.90;;
7887;SDS011;3989;48.810;9.208;2022-11-04T14:22:26;0.87;;;0.60;;
7887;SDS011;3989;48.810;9.208;2022-11-04T14:24:56;1.13;;;0.60;;
7887;SDS011;3989;48.810;9.208;2022-11-04T14:27:35;0.67;;;0.60;;
7887;SDS011;3989;48.810;9.208;2022-11-04T14:30:05;1.70;;;0.90;;
7887;SDS011;3989;48.810;9.208;2022-11-04T14:32:53;0.50;;;0.50;;
7887;SDS011;3989;48.810;9.208;2022-11-04T14:35:22;1.27;;;0.90;;
7887;SDS011;3989;48.810;9.208;2022-11-04T14:37:50;0.93;;;0.83;;
7887;SDS011;3989;48.810;9.208;2022-11-04T14:40:23;1.43;;;1.10;;
7887;SDS011;3989;48.810;9.208;2022-11-04T14:42:54;0.97;;;0.90;;
7887;SDS011;3989;48.810;9.208;2022-11-04T14:45:23;0.80;;;0.80;;
7887;SDS011;3989;48.810;9.208;2022-11-04T14:47:54;0.70;;;0.63;;
7887;SDS011;3989;48.810;9.208;2022-11-04T14:50:24;2.53;;;0.87;;
7887;SDS011;3989;48.810;9.208;2022-11-04T14:52:53;2.33;;;1.40;;
7887;SDS011;3989;48.810;9.208;2022-11-04T14:55:23;2.10;;;1.10;;
7887;SDS011;3989;48.810;9.208;2022-11-04T14:57:55;1.00;;;1.00;;
7887;SDS011;3989;48.810;9.208;2022-11-04T15:00:31;1.60;;;1.00;;
7887;SDS011;3989;48.810;9.208;2022-11-04T15:03:04;2.20;;;1.40;;
7887;SDS011;3989;48.810;9.208;2022-11-04T15:05:38;2.00;;;1.20;;
7887;SDS011;3989;48.810;9.208;2022-11-04T15:08:24;1.90;;;1.23;;
7887;SDS011;3989;48.810;9.208;2022-11-04T15:11:00;1.70;;;1.00;;
7887;SDS011;3989;48.810;9.208;2022-11-04T15:13:33;1.40;;;1.30;;
7887;SDS011;3989;48.810;9.208;2022-11-04T15:16:08;1.50;;;1.10;;
7887;SDS011;3989;48.810;9.208;2022-11-04T15:18:39;1.40;;;1.30;;
7887;SDS011;3989;48.810;9.208;2022-11-04T15:21:07;1.43;;;1.13;;
7887;SDS011;3989;48.810;9.208;2022-11-04T15:23:36;3.23;;;1.20;;
7887;SDS011;3989;48.810;9.208;2022-11-04T15:26:13;2.47;;;1.07;;
7887;SDS011;3989;48.810;9.208;2022-11-04T15:28:50;1.33;;;0.90;;
7887;SDS011;3989;48.810;9.208;2022-11-04T15:31:19;1.90;;;1.10;;
7887;SDS011;3989;48.810;9.208;2022-11-04T15:33:47;0.87;;;0.87;;
7887;SDS011;3989;48.810;9.208;2022-11-04T15:36:16;1.90;;;1.07;;
7887;SDS011;3989;48.810;9.208;2022-11-04T15:38:48;1.80;;;0.90;;
7887;SDS011;3989;48.810;9.208;2022-11-04T15:41:18;1.13;;;0.97;;
7887;SDS011;3989;48.810;9.208;2022-11-04T15:44:07;2.87;;;1.10;;
7887;SDS011;3989;48.810;9.208;2022-11-04T15:46:46;3.60;;;1.47;;
7887;SDS011;3989;48.810;9.208;2022-11-04T15:49:21;3.13;;;1.80;;
7887;SDS011;3989;48.810;9.208;2022-11-04T15:51:51;1.20;;;1.20;;
7887;SDS011;3989;48.810;9.208;2022-11-04T15:54:21;1.30;;;1.30;;
7887;SDS011;3989;48.810;9.208;2022-11-04T15:56:53;1.03;;;1.03;;
7887;SDS011;3989;48.810;9.208;2022-11-04T15:59:28;1.03;;;0.93;;
7887;SDS011;3989;48.810;9.208;2022-11-04T16:01:57;0.93;;;0.90;;
7887;SDS011;3989;48.810;9.208;2022-11-04T16:04:25;1.10;;;1.10;;
7887;SDS011;3989;48.810;9.208;2022-11-04T16:09:48;2.23;;;1.27;;
7887;SDS011;3989;48.810;9.208;2022-11-04T16:12:27;2.90;;;2.70;;
7887;SDS011;3989;48.810;9.208;2022-11-04T16:18:19;3.60;;;3.20;;
7887;SDS011;3989;48.810;9.208;2022-11-04T16:20:52;2.60;;;2.40;;
7887;SDS011;3989;48.810;9.208;2022-11-04T16:23:20;4.47;;;4.13;;
7887;SDS011;3989;48.810;9.208;2022-11-04T16:25:55;5.40;;;3.47;;
7887;SDS011;3989;48.810;9.208;2022-11-04T16:28:26;3.90;;;3.60;;
7887;SDS011;3989;48.810;9.208;2022-11-04T16:30:56;2.97;;;2.70;;